Time;durP1;ratioP1;P1;durP2;ratioP2;P2;SDS_P1;SDS_P2;PMS_P1;PMS_P2;Temp;Humidity;BMP_temperature;BMP_pressure;BME280_temperature;BME280_humidity;BME280_pressure;Samples;Min_cycle;Max_cycle;Signal;HPM_P1;HPM_P2
2023/08/06 00:00:08;;;;;;;4.20;3.80;;;;;;;22.86;54.58;92397.19;522046;28;1090;-46
2023/08/06 00:00:23;;;;;;;4.30;3.90;;;;;;;22.86;54.52;92397.19;522192;28;822;-47
2023/08/06 00:00:39;;;;;;;4.28;3.67;;;;;;;22.84;54.22;92390.78;523286;28;1317;-46
2023/08/06 00:00:54;;;;;;;4.47;3.77;;;;;;;22.87;54.29;92395.81;524135;28;771;-46
2023/08/06 00:01:10;;;;;;;4.13;3.70;;;;;;;22.87;54.21;92403.56;523089;28;1782;-47
2023/08/06 00:01:25;;;;;;;9.57;3.90;;;;;;;22.87;54.38;92409.19;523958;28;1318;-48
2023/08/06 00:01:40;;;;;;;15.03;4.53;;;;;;;22.87;54.42;92404.25;522721;28;1139;-47
2023/08/06 00:01:56;;;;;;;13.37;4.73;;;;;;;22.89;54.16;92409.25;523743;28;1485;-48
2023/08/06 00:02:11;;;;;;;11.73;4.72;;;;;;;22.89;54.37;92417.69;523231;28;1169;-49
2023/08/06 00:02:26;;;;;;;7.60;4.20;;;;;;;22.91;54.20;92412.13;522029;28;907;-47
2023/08/06 00:02:42;;;;;;;4.40;3.87;;;;;;;22.92;54.14;92410.72;522712;28;2253;-47
2023/08/06 00:02:57;;;;;;;4.68;4.28;;;;;;;22.93;54.41;92420.63;523017;28;878;-46
2023/08/06 00:03:13;;;;;;;4.80;4.30;;;;;;;22.91;54.62;92414.94;523109;28;1236;-47
2023/08/06 00:03:28;;;;;;;5.07;4.17;;;;;;;22.93;54.79;92418.53;524074;28;841;-48
2023/08/06 00:03:43;;;;;;;4.82;4.38;;;;;;;22.94;55.06;92424.88;523846;28;1311;-47
2023/08/06 00:04:00;;;;;;;5.10;4.70;;;;;;;22.95;54.89;92421.41;524083;28;740;-46
2023/08/06 00:04:15;;;;;;;4.72;4.43;;;;;;;22.96;55.06;92422.84;522416;28;858;-47
2023/08/06 00:04:30;;;;;;;5.13;4.72;;;;;;;22.96;54.97;92424.94;522037;28;826;-46
2023/08/06 00:04:46;;;;;;;6.47;5.73;;;;;;;22.96;54.46;92422.13;523328;28;1720;-47
2023/08/06 00:05:02;;;;;;;6.23;5.63;;;;;;;22.96;54.44;92425.66;523712;28;1071;-46
2023/08/06 00:05:18;;;;;;;5.85;5.45;;;;;;;22.91;54.30;92420.56;522674;28;867;-48
2023/08/06 00:05:33;;;;;;;5.97;5.57;;;;;;;22.96;54.49;92434.09;522111;28;847;-46
2023/08/06 00:05:49;;;;;;;5.97;5.57;;;;;;;22.96;54.20;92428.47;522028;28;874;-46
2023/08/06 00:06:07;;;;;;;5.77;5.37;;;;;;;22.97;54.28;92432.03;524007;28;793;-49
2023/08/06 00:06:22;;;;;;;5.80;5.30;;;;;;;22.98;54.45;92433.44;523832;28;1164;-47
2023/08/06 00:06:37;;;;;;;6.83;6.33;;;;;;;22.99;54.61;92426.44;524324;28;1216;-47
2023/08/06 00:06:53;;;;;;;6.53;6.03;;;;;;;22.99;54.61;92432.06;523241;28;1211;-48
2023/08/06 00:07:08;;;;;;;5.37;4.93;;;;;;;23.00;54.19;92430.72;523968;28;1462;-47
2023/08/06 00:07:23;;;;;;;10.07;6.57;;;;;;;23.00;54.03;92427.91;523849;28;1303;-46
2023/08/06 00:07:39;;;;;;;11.82;8.10;;;;;;;23.00;54.04;92422.28;525494;28;840;-48
2023/08/06 00:07:54;;;;;;;13.07;8.13;;;;;;;23.00;54.07;92428.59;525678;28;1298;-47
2023/08/06 00:08:09;;;;;;;17.63;8.07;;;;;;;23.02;54.17;92430.78;526273;28;763;-49
2023/08/06 00:08:25;;;;;;;19.50;7.37;;;;;;;23.02;54.09;92430.78;525044;28;1564;-47
2023/08/06 00:08:40;;;;;;;17.38;6.40;;;;;;;23.03;54.10;92426.56;523043;28;799;-47
2023/08/06 00:08:55;;;;;;;9.90;6.17;;;;;;;23.03;54.24;92432.94;523539;28;987;-46
2023/08/06 00:09:11;;;;;;;6.27;5.70;;;;;;;23.05;54.57;92435.09;522021;28;1116;-47
2023/08/06 00:09:26;;;;;;;6.20;5.63;;;;;;;23.04;54.54;92436.47;522328;28;865;-47
2023/08/06 00:09:41;;;;;;;16.17;5.97;;;;;;;23.05;55.09;92435.81;524009;28;795;-47
2023/08/06 00:09:57;;;;;;;19.40;7.10;;;;;;;23.05;54.97;92438.63;524898;28;1340;-47
2023/08/06 00:10:12;;;;;;;11.40;6.97;;;;;;;23.06;54.69;92442.91;523958;28;929;-48
2023/08/06 00:10:28;;;;;;;9.03;6.33;;;;;;;23.06;54.54;92444.97;523933;28;1154;-47
2023/08/06 00:10:43;;;;;;;7.53;6.27;;;;;;;23.06;54.20;92439.34;521883;28;948;-48
2023/08/06 00:10:59;;;;;;;7.88;6.13;;;;;;;23.06;53.91;92444.97;523080;28;879;-46
2023/08/06 00:11:14;;;;;;;7.30;6.20;;;;;;;23.06;54.06;92451.34;522909;28;1894;-47
2023/08/06 00:11:29;;;;;;;6.67;6.20;;;;;;;23.07;54.49;92452.03;522183;28;821;-46
2023/08/06 00:11:46;;;;;;;6.22;5.82;;;;;;;23.05;54.64;92447.06;523765;28;843;-46
2023/08/06 00:12:02;;;;;;;6.85;5.63;;;;;;;23.01;54.40;92449.03;523983;28;939;-48
2023/08/06 00:12:17;;;;;;;6.87;5.37;;;;;;;23.04;54.75;92451.25;524223;28;825;-47
2023/08/06 00:12:32;;;;;;;5.00;4.60;;;;;;;23.05;54.90;92454.78;524194;28;851;-46
2023/08/06 00:12:48;;;;;;;5.32;4.88;;;;;;;23.05;54.90;92457.59;524098;28;1040;-47
2023/08/06 00:13:03;;;;;;;6.23;5.67;;;;;;;23.04;54.84;92459.00;524030;28;1140;-46
2023/08/06 00:13:19;;;;;;;6.25;5.60;;;;;;;23.03;54.97;92466.72;522983;28;1413;-46
2023/08/06 00:13:34;;;;;;;5.33;4.83;;;;;;;23.02;54.87;92458.94;526216;28;890;-46
2023/08/06 00:13:50;;;;;;;8.97;4.70;;;;;;;23.01;55.22;92463.84;526269;28;850;-46
2023/08/06 00:14:05;;;;;;;9.38;4.20;;;;;;;23.00;55.37;92461.69;523784;28;856;-48
2023/08/06 00:14:20;;;;;;;5.30;3.60;;;;;;;23.00;55.26;92461.69;524166;28;793;-46
2023/08/06 00:14:36;;;;;;;6.97;3.77;;;;;;;22.98;55.51;92459.50;524142;28;848;-46
2023/08/06 00:14:52;;;;;;;8.98;4.05;;;;;;;22.99;55.79;92460.97;523907;28;1190;-46
2023/08/06 00:15:08;;;;;;;7.15;3.30;;;;;;;22.98;55.93;92458.78;523417;28;797;-48
2023/08/06 00:15:23;;;;;;;5.38;2.75;;;;;;;22.97;56.29;92454.53;524120;28;893;-47
2023/08/06 00:15:39;;;;;;;6.80;2.90;;;;;;;22.95;57.04;92457.28;523590;28;1755;-46
2023/08/06 00:15:54;;;;;;;6.47;3.17;;;;;;;22.94;56.88;92455.84;523633;28;1576;-47
2023/08/06 00:16:13;;;;;;;6.10;2.90;;;;;;;22.92;56.95;92450.88;522500;28;850;-47
2023/08/06 00:16:29;;;;;;;5.85;2.70;;;;;;;22.93;57.51;92454.41;522104;28;1111;-46
2023/08/06 00:16:44;;;;;;;4.50;2.73;;;;;;;22.89;57.90;92440.91;522060;28;799;-46
2023/08/06 00:17:00;;;;;;;7.55;2.78;;;;;;;22.90;57.91;92445.19;523487;28;799;-46
2023/08/06 00:17:15;;;;;;;8.47;2.80;;;;;;;22.89;58.18;92440.91;524142;28;795;-45
2023/08/06 00:17:31;;;;;;;4.88;2.88;;;;;;;22.86;58.99;92442.22;524212;28;771;-45
2023/08/06 00:17:46;;;;;;;3.90;2.90;;;;;;;22.86;59.14;92435.88;522935;28;1096;-46
2023/08/06 00:18:01;;;;;;;4.73;3.07;;;;;;;22.84;59.65;92435.81;524075;28;906;-46
2023/08/06 00:18:17;;;;;;;6.32;3.00;;;;;;;22.82;59.94;92439.28;524200;28;791;-46
2023/08/06 00:18:32;;;;;;;6.27;2.77;;;;;;;22.80;60.11;92435.69;523245;28;1771;-47
2023/08/06 00:18:47;;;;;;;6.50;2.80;;;;;;;22.72;61.53;92427.69;523414;28;858;-46
2023/08/06 00:19:03;;;;;;;6.20;2.97;;;;;;;22.71;61.18;92426.25;524086;28;998;-48
2023/08/06 00:19:18;;;;;;;5.60;3.10;;;;;;;22.70;61.13;92424.81;524002;28;1082;-47
2023/08/06 00:19:33;;;;;;;6.00;3.00;;;;;;;22.70;61.72;92429.72;522711;28;1600;-47
2023/08/06 00:19:49;;;;;;;4.90;2.87;;;;;;;22.66;61.60;92423.94;521947;28;806;-46
2023/08/06 00:20:06;;;;;;;3.53;2.88;;;;;;;22.62;61.18;92421.72;523832;28;967;-47
2023/08/06 00:20:21;;;;;;;3.50;2.90;;;;;;;22.59;60.99;92420.22;524028;28;881;-46
2023/08/06 00:20:39;;;;;;;3.93;2.93;;;;;;;22.59;60.93;92417.41;522913;28;1135;-45
2023/08/06 00:20:54;;;;;;;5.50;3.00;;;;;;;22.58;60.78;92418.75;523511;28;1142;-47
2023/08/06 00:21:12;;;;;;;3.90;2.70;;;;;;;22.56;60.78;92407.44;523996;28;831;-45
2023/08/06 00:21:27;;;;;;;3.33;2.47;;;;;;;22.55;60.93;92420.78;524010;28;926;-45
2023/08/06 00:21:42;;;;;;;4.10;2.67;;;;;;;22.53;61.11;92417.19;523909;28;865;-46
2023/08/06 00:21:58;;;;;;;5.20;2.83;;;;;;;22.53;61.14;92417.19;523905;28;910;-46
2023/08/06 00:22:13;;;;;;;5.03;2.63;;;;;;;22.50;61.19;92405.13;523893;28;1137;-46
2023/08/06 00:22:29;;;;;;;5.07;2.80;;;;;;;22.50;61.20;92413.56;523927;28;1199;-46
2023/08/06 00:22:44;;;;;;;5.20;3.10;;;;;;;22.43;61.70;92416.84;523758;28;1462;-47
2023/08/06 00:22:59;;;;;;;4.90;3.20;;;;;;;22.44;61.72;92409.84;523476;28;1653;-45
2023/08/06 00:23:15;;;;;;;4.47;2.95;;;;;;;22.45;61.55;92411.28;522657;28;862;-46
2023/08/06 00:23:30;;;;;;;4.67;2.90;;;;;;;22.45;61.77;92412.00;524001;28;866;-45
2023/08/06 00:23:45;;;;;;;5.33;3.07;;;;;;;22.41;62.29;92409.06;523999;28;1184;-46
2023/08/06 00:24:01;;;;;;;7.20;3.10;;;;;;;22.40;62.22;92404.81;524126;28;843;-45
2023/08/06 00:24:16;;;;;;;6.83;3.10;;;;;;;22.37;62.58;92405.41;521807;28;1765;-46
2023/08/06 00:24:31;;;;;;;4.80;3.10;;;;;;;22.32;62.95;92410.16;522038;28;813;-46
2023/08/06 00:24:47;;;;;;;4.73;3.37;;;;;;;22.34;62.72;92404.59;522041;28;983;-46
2023/08/06 00:25:03;;;;;;;5.55;3.42;;;;;;;22.33;63.23;92405.97;523744;28;1042;-48
2023/08/06 00:25:19;;;;;;;5.72;3.30;;;;;;;22.33;63.31;92397.53;523026;28;1082;-46
2023/08/06 00:25:34;;;;;;;6.60;3.17;;;;;;;22.34;63.68;92398.97;524076;28;1603;-45
2023/08/06 00:25:50;;;;;;;7.57;3.40;;;;;;;22.33;64.34;92397.53;523102;28;1683;-45
2023/08/06 00:26:05;;;;;;;6.17;3.40;;;;;;;22.33;64.41;92394.72;522653;28;848;-46
2023/08/06 00:26:20;;;;;;;4.43;3.30;;;;;;;22.33;64.62;92400.34;522086;28;843;-46
2023/08/06 00:26:36;;;;;;;4.17;3.47;;;;;;;22.33;64.87;92400.34;522036;28;807;-48
2023/08/06 00:26:51;;;;;;;5.97;3.58;;;;;;;22.32;64.96;92398.91;523249;28;1173;-46
2023/08/06 00:27:07;;;;;;;6.63;3.47;;;;;;;22.33;65.20;92397.53;524120;28;941;-46
2023/08/06 00:27:22;;;;;;;5.60;3.20;;;;;;;22.33;65.59;92397.53;524124;28;811;-46
2023/08/06 00:27:38;;;;;;;7.20;3.22;;;;;;;22.31;65.27;92397.47;524147;28;878;-46
2023/08/06 00:27:54;;;;;;;7.28;3.28;;;;;;;22.29;65.47;92394.56;523407;28;1605;-47
2023/08/06 00:28:09;;;;;;;7.07;3.20;;;;;;;22.30;65.22;92398.13;524144;28;842;-46
2023/08/06 00:28:24;;;;;;;6.20;3.13;;;;;;;22.28;64.95;92393.16;523799;28;1482;-46
2023/08/06 00:28:40;;;;;;;5.67;3.20;;;;;;;22.27;65.33;92391.69;523641;28;855;-46
2023/08/06 00:28:55;;;;;;;5.63;3.20;;;;;;;22.28;65.79;92395.25;522593;28;891;-47
2023/08/06 00:29:10;;;;;;;3.97;2.92;;;;;;;22.26;66.39;92395.88;521989;28;1546;-46
2023/08/06 00:29:26;;;;;;;4.77;3.37;;;;;;;22.18;66.19;92389.97;522078;28;800;-47
2023/08/06 00:29:41;;;;;;;6.00;3.37;;;;;;;22.21;66.22;92390.78;521978;28;851;-46
2023/08/06 00:29:57;;;;;;;5.03;3.03;;;;;;;22.15;66.23;92396.91;523294;28;1119;-46
2023/08/06 00:30:12;;;;;;;5.80;3.30;;;;;;;22.15;65.69;92396.19;521967;28;883;-48
2023/08/06 00:30:27;;;;;;;5.10;3.27;;;;;;;22.11;65.06;92393.25;522059;28;859;-47
2023/08/06 00:30:43;;;;;;;3.80;3.00;;;;;;;22.10;65.25;92391.78;522010;28;840;-47
2023/08/06 00:30:58;;;;;;;4.03;3.00;;;;;;;22.09;65.27;92387.56;523150;28;847;-47
2023/08/06 00:31:13;;;;;;;4.80;3.00;;;;;;;22.09;65.35;92387.56;523424;28;1935;-46
2023/08/06 00:31:29;;;;;;;5.20;2.80;;;;;;;22.09;65.82;92391.06;522725;28;857;-46
2023/08/06 00:31:44;;;;;;;5.47;2.97;;;;;;;22.09;65.95;92391.06;522018;28;781;-48
2023/08/06 00:31:59;;;;;;;6.10;3.17;;;;;;;22.10;66.15;92391.78;523400;28;809;-46
2023/08/06 00:32:15;;;;;;;6.40;3.43;;;;;;;22.11;66.40;92387.63;522888;28;960;-47
2023/08/06 00:32:30;;;;;;;5.57;3.47;;;;;;;22.09;66.34;92377.00;522119;28;830;-46
2023/08/06 00:32:45;;;;;;;4.17;3.33;;;;;;;22.09;65.93;92377.00;522460;28;929;-46
2023/08/06 00:33:01;;;;;;;5.53;3.63;;;;;;;22.08;65.77;92381.22;524092;28;826;-45
2023/08/06 00:33:16;;;;;;;5.50;3.28;;;;;;;22.07;66.38;92374.13;523301;28;787;-48
2023/08/06 00:33:31;;;;;;;4.00;3.00;;;;;;;22.08;66.40;92381.22;522149;28;805;-46
2023/08/06 00:33:47;;;;;;;4.50;2.93;;;;;;;22.08;66.56;92381.22;522019;28;871;-47
2023/08/06 00:34:02;;;;;;;4.17;2.80;;;;;;;22.08;66.51;92372.78;523537;28;1226;-46
2023/08/06 00:34:18;;;;;;;4.82;2.92;;;;;;;22.09;66.35;92373.50;524064;28;891;-47
2023/08/06 00:34:33;;;;;;;5.30;2.90;;;;;;;22.09;66.24;92376.31;524044;28;877;-47
2023/08/06 00:34:51;;;;;;;4.60;3.20;;;;;;;22.08;65.73;92372.78;522647;28;1699;-46
2023/08/06 00:35:07;;;;;;;4.88;2.97;;;;;;;22.09;65.50;92379.81;521958;28;1986;-46
2023/08/06 00:35:22;;;;;;;4.67;2.70;;;;;;;22.07;65.33;92376.94;522070;28;922;-47
2023/08/06 00:35:38;;;;;;;3.95;2.60;;;;;;;22.06;65.05;92371.97;522092;28;1007;-47
2023/08/06 00:35:53;;;;;;;6.03;2.80;;;;;;;22.05;64.83;92367.72;524016;28;926;-47
2023/08/06 00:36:08;;;;;;;5.87;2.80;;;;;;;22.04;64.52;92369.81;524117;28;779;-46
2023/08/06 00:36:24;;;;;;;4.72;3.00;;;;;;;22.04;64.97;92369.09;524065;28;1486;-46
2023/08/06 00:36:40;;;;;;;5.27;3.10;;;;;;;22.03;65.33;92365.56;524137;28;795;-46
2023/08/06 00:36:55;;;;;;;5.32;3.00;;;;;;;22.03;65.61;92364.84;523220;28;861;-47
2023/08/06 00:37:11;;;;;;;5.17;3.33;;;;;;;22.03;66.39;92362.03;524012;28;1086;-46
2023/08/06 00:37:26;;;;;;;5.15;3.35;;;;;;;22.03;66.70;92362.03;524066;28;892;-46
2023/08/06 00:37:41;;;;;;;5.07;3.30;;;;;;;22.03;66.83;92368.38;524171;28;858;-45
2023/08/06 00:37:57;;;;;;;3.33;2.87;;;;;;;22.04;66.77;92371.91;523980;28;1473;-47
2023/08/06 00:38:12;;;;;;;3.10;2.63;;;;;;;22.03;66.64;92370.47;524177;28;794;-47
2023/08/06 00:38:27;;;;;;;3.87;2.70;;;;;;;22.04;66.65;92377.53;523497;28;1736;-48
2023/08/06 00:38:43;;;;;;;4.13;2.80;;;;;;;22.03;66.55;92376.81;524499;28;1483;-48
2023/08/06 00:38:58;;;;;;;4.63;2.88;;;;;;;22.03;66.27;92376.09;524675;28;935;-46
2023/08/06 00:39:13;;;;;;;4.87;3.17;;;;;;;22.00;66.44;92378.13;523958;28;804;-46
2023/08/06 00:39:29;;;;;;;4.00;3.20;;;;;;;21.94;65.57;92371.56;523908;28;851;-47
2023/08/06 00:39:44;;;;;;;3.63;3.03;;;;;;;21.90;65.87;92377.75;523898;28;1124;-48
2023/08/06 00:40:00;;;;;;;4.50;3.03;;;;;;;21.88;66.17;92380.50;525311;28;1173;-47
2023/08/06 00:40:15;;;;;;;4.87;3.33;;;;;;;21.85;65.81;92374.06;525898;28;1156;-48
2023/08/06 00:40:30;;;;;;;4.93;3.03;;;;;;;21.78;65.86;92374.50;525793;28;919;-47
2023/08/06 00:40:46;;;;;;;3.60;2.40;;;;;;;21.72;66.15;92374.28;522007;28;840;-49
2023/08/06 00:41:01;;;;;;;3.10;2.60;;;;;;;21.69;66.45;92378.38;523626;28;783;-47
2023/08/06 00:41:17;;;;;;;3.70;2.85;;;;;;;21.60;66.88;92382.25;522670;28;1759;-47
2023/08/06 00:41:32;;;;;;;3.70;2.97;;;;;;;21.56;67.01;92368.06;523766;28;887;-48
2023/08/06 00:41:48;;;;;;;3.78;2.90;;;;;;;21.56;67.27;92379.31;523622;28;1081;-47
2023/08/06 00:42:03;;;;;;;4.20;2.93;;;;;;;21.58;67.19;92382.91;524078;28;827;-48
2023/08/06 00:42:20;;;;;;;5.75;3.22;;;;;;;21.49;67.84;92380.44;522323;28;1475;-48
2023/08/06 00:42:36;;;;;;;6.30;3.38;;;;;;;21.42;68.64;92376.69;524060;28;947;-47
2023/08/06 00:42:51;;;;;;;4.07;2.85;;;;;;;;;;525255;28;858;-49
2023/08/06 00:43:06;;;;;;;3.07;2.60;;;;;;;21.29;69.08;92379.72;524030;28;1075;-47
2023/08/06 00:43:22;;;;;;;3.20;2.90;;;;;;;21.26;69.11;92381.00;524460;28;1398;-49
2023/08/06 00:43:37;;;;;;;3.07;2.77;;;;;;;21.18;69.25;92378.59;524073;28;1676;-46
2023/08/06 00:43:53;;;;;;;3.03;2.73;;;;;;;21.14;69.48;92370.75;523961;28;1200;-47
2023/08/06 00:44:08;;;;;;;3.92;2.78;;;;;;;21.16;69.41;92386.94;524043;28;811;-49
2023/08/06 00:44:23;;;;;;;4.63;2.77;;;;;;;21.16;69.39;92377.81;523852;28;825;-48
2023/08/06 00:44:39;;;;;;;3.90;2.90;;;;;;;21.15;69.47;92379.91;523368;28;1715;-47
2023/08/06 00:44:54;;;;;;;4.65;3.20;;;;;;;21.07;69.88;92380.28;522989;28;891;-48
2023/08/06 00:45:10;;;;;;;4.50;3.17;;;;;;;21.08;69.90;92389.44;522387;28;922;-47
2023/08/06 00:45:26;;;;;;;3.75;3.05;;;;;;;21.08;69.58;92381.75;523931;28;1113;-46
2023/08/06 00:45:41;;;;;;;3.93;3.00;;;;;;;21.03;69.67;92382.94;523796;28;826;-49
2023/08/06 00:45:57;;;;;;;4.25;3.10;;;;;;;20.92;70.24;92383.19;522942;28;792;-47
2023/08/06 00:46:12;;;;;;;4.87;2.77;;;;;;;20.92;70.20;92380.38;524074;28;905;-47
2023/08/06 00:46:27;;;;;;;4.13;2.47;;;;;;;20.92;70.18;92380.38;523950;28;1007;-46
2023/08/06 00:46:43;;;;;;;3.67;2.90;;;;;;;20.92;69.79;92383.19;523902;28;1674;-46
2023/08/06 00:46:58;;;;;;;3.50;3.10;;;;;;;20.88;69.70;92375.31;522979;28;1067;-46
2023/08/06 00:47:14;;;;;;;3.08;2.75;;;;;;;20.90;69.81;92381.00;523927;28;822;-46
2023/08/06 00:47:29;;;;;;;3.63;3.10;;;;;;;20.91;69.83;92381.75;523976;28;804;-47
2023/08/06 00:47:45;;;;;;;4.18;3.22;;;;;;;20.88;70.12;92380.94;523945;28;828;-45
2023/08/06 00:48:02;;;;;;;5.32;3.20;;;;;;;20.84;70.39;92377.25;523840;28;916;-46
2023/08/06 00:48:17;;;;;;;5.20;3.10;;;;;;;20.90;70.32;92385.91;524390;28;934;-47
2023/08/06 00:48:33;;;;;;;3.80;3.10;;;;;;;20.92;70.24;92383.19;525212;28;1498;-46
2023/08/06 00:48:49;;;;;;;3.58;3.15;;;;;;;20.91;70.26;92388.09;524984;28;862;-46
2023/08/06 00:49:05;;;;;;;2.80;2.60;;;;;;;20.91;69.98;92384.53;524488;28;891;-46
2023/08/06 00:49:21;;;;;;;3.17;2.77;;;;;;;20.90;69.64;92386.63;523956;28;1099;-47
2023/08/06 00:49:36;;;;;;;3.53;2.97;;;;;;;20.85;69.97;92387.13;523085;28;856;-47
2023/08/06 00:49:52;;;;;;;3.77;2.97;;;;;;;20.80;69.58;92396.72;522205;28;986;-47
2023/08/06 00:50:08;;;;;;;4.50;3.13;;;;;;;20.78;69.37;92388.97;522021;28;855;-48
2023/08/06 00:50:23;;;;;;;3.38;3.00;;;;;;;20.75;69.14;92393.03;523993;28;860;-47
2023/08/06 00:50:39;;;;;;;3.20;2.80;;;;;;;20.72;69.51;92397.16;522251;28;1545;-48
2023/08/06 00:50:54;;;;;;;3.63;2.83;;;;;;;20.72;69.70;92388.00;522601;28;832;-49
2023/08/06 00:51:11;;;;;;;5.67;3.00;;;;;;;20.72;69.85;92390.81;521920;28;829;-51
2023/08/06 00:51:26;;;;;;;7.57;3.38;;;;;;;20.71;70.17;92386.53;520577;28;1287;-48
2023/08/06 00:51:42;;;;;;;5.83;3.40;;;;;;;20.69;70.63;92390.00;519504;28;1353;-47
2023/08/06 00:51:58;;;;;;;3.60;2.97;;;;;;;20.66;70.88;92382.84;518992;28;904;-48
2023/08/06 00:52:14;;;;;;;3.42;2.78;;;;;;;20.65;71.03;92384.25;518372;28;1091;-48
2023/08/06 00:52:29;;;;;;;3.17;2.80;;;;;;;20.65;71.30;92384.25;521099;28;997;-48
2023/08/06 00:52:44;;;;;;;3.45;2.88;;;;;;;20.63;71.56;92380.63;521801;28;928;-51
2023/08/06 00:53:00;;;;;;;4.27;3.00;;;;;;;20.59;72.00;92378.38;522666;28;1605;-49
2023/08/06 00:53:15;;;;;;;4.40;3.10;;;;;;;20.58;71.74;92374.13;522394;28;850;-48
2023/08/06 00:53:31;;;;;;;3.67;2.97;;;;;;;20.59;71.55;92378.38;524280;28;800;-49
2023/08/06 00:53:47;;;;;;;3.53;2.70;;;;;;;20.61;71.36;92372.13;524714;28;879;-48
2023/08/06 00:54:02;;;;;;;3.80;2.90;;;;;;;20.61;71.24;92367.25;525146;28;1620;-49
2023/08/06 00:54:17;;;;;;;3.45;2.95;;;;;;;20.53;71.33;92364.09;523828;28;892;-50
2023/08/06 00:54:33;;;;;;;3.87;2.80;;;;;;;20.43;71.48;92358.09;523791;28;1154;-48
2023/08/06 00:54:48;;;;;;;4.17;2.87;;;;;;;20.37;71.87;92360.66;522673;28;836;-49
2023/08/06 00:55:04;;;;;;;3.13;2.78;;;;;;;20.32;71.93;92365.38;523656;28;1917;-51
2023/08/06 00:55:20;;;;;;;3.67;2.80;;;;;;;20.34;72.08;92356.31;519745;28;844;-48
2023/08/06 00:55:35;;;;;;;5.07;3.00;;;;;;;20.34;71.94;92354.25;520196;28;848;-48
2023/08/06 00:55:51;;;;;;;4.40;2.80;;;;;;;20.32;71.98;92348.56;522296;28;1711;-48
2023/08/06 00:56:07;;;;;;;4.75;2.65;;;;;;;20.40;71.84;92353.75;523827;28;1018;-49
2023/08/06 00:56:24;;;;;;;4.90;2.97;;;;;;;20.37;72.05;92350.19;521968;28;922;-48
2023/08/06 00:56:42;;;;;;;3.85;2.75;;;;;;;20.38;72.17;92340.41;521802;28;1043;-49
2023/08/06 00:56:57;;;;;;;5.10;3.33;;;;;;;20.37;72.56;92352.97;523792;28;1357;-49
2023/08/06 00:57:13;;;;;;;6.80;4.07;;;;;;;20.38;72.73;92339.66;523954;28;822;-47
2023/08/06 00:57:28;;;;;;;6.65;3.92;;;;;;;20.38;73.16;92345.28;521778;28;887;-46
2023/08/06 00:57:44;;;;;;;5.03;3.43;;;;;;;20.38;73.50;92339.66;521816;28;1204;-46
2023/08/06 00:57:59;;;;;;;5.75;3.42;;;;;;;20.38;74.06;92342.47;519785;28;835;-46
2023/08/06 00:58:15;;;;;;;6.47;3.77;;;;;;;20.40;74.12;92348.88;518987;28;1430;-46
2023/08/06 00:58:31;;;;;;;5.07;3.70;;;;;;;20.40;74.54;92340.47;518659;28;1723;-46
2023/08/06 00:58:46;;;;;;;5.37;3.53;;;;;;;20.44;74.70;92342.72;519055;28;799;-46
2023/08/06 00:59:01;;;;;;;7.15;3.63;;;;;;;20.47;74.75;92338.63;519578;28;2433;-45
2023/08/06 00:59:17;;;;;;;9.57;3.40;;;;;;;20.50;74.74;92345.03;517411;28;1299;-46
2023/08/06 00:59:32;;;;;;;7.53;3.30;;;;;;;20.52;74.47;92345.13;519736;28;1302;-46
2023/08/06 00:59:48;;;;;;;6.30;3.50;;;;;;;20.54;75.06;92348.00;522234;28;803;-45
2023/08/06 01:00:04;;;;;;;6.65;3.33;;;;;;;20.54;75.66;92351.53;523789;28;787;-45
2023/08/06 01:00:20;;;;;;;7.07;3.47;;;;;;;20.56;75.81;92345.28;523369;28;1368;-45
2023/08/06 01:00:36;;;;;;;6.20;3.45;;;;;;;20.56;74.80;92353.69;522329;28;938;-46
2023/08/06 01:00:52;;;;;;;3.95;3.20;;;;;;;20.57;74.15;92355.16;522015;28;1138;-46
2023/08/06 01:01:07;;;;;;;3.57;3.17;;;;;;;20.56;73.66;92350.88;524453;28;910;-45
2023/08/06 01:01:23;;;;;;;4.25;3.13;;;;;;;20.56;73.52;92357.22;525095;28;1711;-45
2023/08/06 01:01:38;;;;;;;5.43;3.20;;;;;;;20.56;73.66;92365.63;525103;28;847;-46
2023/08/06 01:01:54;;;;;;;6.65;3.28;;;;;;;20.58;73.74;92367.78;524825;28;800;-46
2023/08/06 01:02:09;;;;;;;5.23;3.30;;;;;;;20.57;73.67;92372.69;523785;28;1199;-45
2023/08/06 01:02:24;;;;;;;4.13;3.40;;;;;;;20.59;73.86;92372.78;522687;28;1114;-45
2023/08/06 01:02:40;;;;;;;5.10;3.35;;;;;;;20.60;73.98;92371.41;521780;28;886;-44
2023/08/06 01:02:56;;;;;;;4.43;3.10;;;;;;;20.62;74.34;92368.69;522600;28;823;-46
2023/08/06 01:03:12;;;;;;;3.88;3.45;;;;;;;20.64;74.41;92371.56;523930;28;854;-46
2023/08/06 01:03:27;;;;;;;5.50;3.90;;;;;;;20.66;74.54;92374.44;522961;28;816;-46
2023/08/06 01:03:42;;;;;;;5.50;3.50;;;;;;;20.66;74.58;92371.63;521761;28;879;-46
2023/08/06 01:03:58;;;;;;;4.83;3.57;;;;;;;20.69;74.57;92364.75;523776;28;1185;-47
2023/08/06 01:04:13;;;;;;;5.35;3.75;;;;;;;20.72;74.51;92365.56;523831;28;847;-45
2023/08/06 01:04:28;;;;;;;6.67;3.70;;;;;;;20.74;74.61;92371.25;523762;28;939;-46
2023/08/06 01:04:44;;;;;;;7.53;3.90;;;;;;;20.75;75.19;92361.47;523398;28;1692;-46
2023/08/06 01:04:59;;;;;;;6.07;3.83;;;;;;;20.76;75.03;92371.31;523691;28;771;-45
2023/08/06 01:05:15;;;;;;;5.27;3.87;;;;;;;20.77;75.19;92358.75;523598;28;1012;-47
2023/08/06 01:05:30;;;;;;;5.90;3.70;;;;;;;20.77;75.29;92356.66;523880;28;870;-45
2023/08/06 01:05:46;;;;;;;5.65;3.47;;;;;;;20.76;75.59;92355.22;522606;28;854;-45
2023/08/06 01:06:01;;;;;;;4.97;3.50;;;;;;;20.76;75.72;92351.69;524091;28;1403;-46
2023/08/06 01:06:19;;;;;;;5.43;3.70;;;;;;;20.76;75.94;92360.09;527747;28;1519;-47
2023/08/06 01:06:40;;;;;;;6.93;4.10;;;;;;;20.77;75.90;92361.56;521881;28;1495;-46
2023/08/06 01:07:21;;;;;;;6.18;4.15;;;;;;;20.78;75.76;92360.19;523008;28;1721;-46
2023/08/06 01:07:42;;;;;;;4.57;3.67;;;;;;;20.76;75.93;92360.09;521234;28;841;-46
2023/08/06 01:08:22;;;;;;;4.72;3.65;;;;;;;20.75;75.57;92362.19;520808;28;1854;-46
2023/08/06 01:08:58;;;;;;;4.97;3.67;;;;;;;20.80;75.48;92360.25;522175;28;1755;-47
2023/08/06 01:09:36;;;;;;;6.30;3.80;;;;;;;20.78;75.53;92360.91;521762;28;878;-45
2023/08/06 01:10:00;;;;;;;4.72;4.05;;;;;;;20.78;75.84;92357.38;522882;28;916;-48
2023/08/06 01:10:15;;;;;;;4.57;4.03;;;;;;;20.79;75.81;92347.63;523905;28;1603;-47
2023/08/06 01:10:49;;;;;;;4.80;3.73;;;;;;;20.83;75.59;92364.59;523902;28;970;-46
2023/08/06 01:11:12;;;;;;;4.82;3.58;;;;;;;20.77;75.33;92365.06;522875;28;962;-47
2023/08/06 01:12:00;;;;;;;6.78;3.50;;;;;;;20.76;75.28;92368.53;525729;28;1744;-46
2023/08/06 01:12:45;;;;;;;5.43;3.63;;;;;;;20.81;74.99;92365.22;522908;28;1298;-46
2023/08/06 01:13:39;;;;;;;4.93;3.90;;;;;;;20.80;74.98;92369.41;521578;28;1580;-47
2023/08/06 01:14:01;;;;;;;4.75;3.42;;;;;;;20.81;75.00;92351.19;520440;28;1163;-46
2023/08/06 01:14:39;;;;;;;4.82;3.60;;;;;;;20.84;74.73;92347.13;521823;28;870;-47
2023/08/06 01:15:07;;;;;;;5.35;3.70;;;;;;;20.85;74.37;92345.03;522232;28;2131;-46
2023/08/06 01:15:26;;;;;;;6.10;3.97;;;;;;;20.82;74.35;92347.03;523192;28;948;-46
2023/08/06 01:15:46;;;;;;;4.90;3.58;;;;;;;20.82;74.03;92338.63;524926;28;1785;-48
2023/08/06 01:16:02;;;;;;;5.22;3.83;;;;;;;20.83;73.99;92340.06;525357;28;909;-47
2023/08/06 01:16:20;;;;;;;4.80;3.75;;;;;;;20.86;73.84;92335.25;522005;28;1655;-47
2023/08/06 01:16:36;;;;;;;4.70;3.63;;;;;;;20.85;73.95;92333.81;521597;28;949;-47
2023/08/06 01:16:53;;;;;;;6.13;3.53;;;;;;;20.81;73.86;92334.34;520829;28;1090;-46
2023/08/06 01:17:09;;;;;;;5.82;3.70;;;;;;;20.81;73.84;92337.16;519608;28;847;-47
2023/08/06 01:17:26;;;;;;;5.00;3.95;;;;;;;20.80;73.78;92332.94;519600;28;839;-47
2023/08/06 01:17:42;;;;;;;5.25;3.78;;;;;;;20.82;73.77;92335.09;519592;28;1092;-47
2023/08/06 01:17:58;;;;;;;4.75;3.58;;;;;;;20.80;73.72;92321.00;519643;28;936;-46
2023/08/06 01:18:13;;;;;;;4.38;3.78;;;;;;;20.84;73.97;92324.66;519548;28;1131;-47
2023/08/06 01:18:29;;;;;;;4.97;4.13;;;;;;;20.88;74.26;92333.25;519374;28;1710;-47
2023/08/06 01:18:49;;;;;;;5.10;4.10;;;;;;;20.90;74.37;92329.78;520239;28;1785;-46
2023/08/06 01:19:04;;;;;;;5.32;3.92;;;;;;;20.92;74.60;92327.06;521996;28;820;-47
2023/08/06 01:19:20;;;;;;;5.45;3.95;;;;;;;20.94;74.45;92330.66;523813;28;878;-46
2023/08/06 01:19:35;;;;;;;4.50;3.60;;;;;;;20.95;74.58;92328.56;523514;28;787;-45
2023/08/06 01:19:50;;;;;;;4.97;3.63;;;;;;;20.96;74.62;92324.41;522959;28;1074;-45
2023/08/06 01:20:06;;;;;;;5.07;3.70;;;;;;;20.97;74.71;92331.47;523814;28;847;-48
2023/08/06 01:20:22;;;;;;;4.22;3.58;;;;;;;20.96;74.82;92327.94;523869;28;762;-47
2023/08/06 01:20:37;;;;;;;5.00;3.63;;;;;;;20.98;74.80;92336.44;523769;28;827;-46